createdAt,value
2022-08-08T00:00:53.016Z,15.70
2022-08-08T00:01:09.928Z,15.80
2022-08-08T00:02:31.274Z,15.80
2022-08-08T00:03:20.165Z,15.83
2022-08-08T00:04:09.812Z,15.76
2022-08-08T00:05:10.113Z,15.75
2022-08-08T00:06:08.724Z,15.72
2022-08-08T00:07:12.600Z,15.77
2022-08-08T00:08:08.708Z,15.73
2022-08-08T00:09:08.689Z,15.77
2022-08-08T00:10:10.735Z,15.75
2022-08-08T00:11:13.206Z,15.77
2022-08-08T00:12:10.670Z,15.75
2022-08-08T00:13:10.284Z,15.79
2022-08-08T00:14:17.572Z,15.77
2022-08-08T00:15:09.535Z,15.83
2022-08-08T00:16:08.511Z,15.72
2022-08-08T00:17:23.005Z,15.70
2022-08-08T00:18:09.493Z,15.72
2022-08-08T00:19:08.448Z,15.73
2022-08-08T00:20:08.427Z,15.79
2022-08-08T00:21:09.408Z,15.67
2022-08-08T00:22:10.581Z,15.73
2022-08-08T00:23:08.433Z,15.68
2022-08-08T00:24:08.343Z,15.58
2022-08-08T00:25:08.529Z,15.58
2022-08-08T00:26:08.301Z,15.61
2022-08-08T00:27:08.286Z,15.58
2022-08-08T00:28:34.546Z,15.49
2022-08-08T00:29:09.242Z,15.57
2022-08-08T00:30:11.240Z,15.47
2022-08-08T00:32:16.410Z,15.52
2022-08-08T00:32:20.809Z,15.52
2022-08-08T00:33:09.181Z,15.55
2022-08-08T00:34:18.659Z,15.54
2022-08-08T00:35:09.114Z,15.39
2022-08-08T00:36:09.784Z,15.46
2022-08-08T00:37:44.983Z,15.37
2022-08-08T00:38:31.640Z,15.25
2022-08-08T00:41:07.442Z,15.36
2022-08-08T00:41:12.220Z,15.35
2022-08-08T00:41:14.750Z,15.24
2022-08-08T00:42:13.337Z,15.42
2022-08-08T00:43:19.369Z,15.25
2022-08-08T00:44:08.937Z,15.27
2022-08-08T00:45:21.412Z,15.24
2022-08-08T00:46:16.552Z,15.15
2022-08-08T00:47:14.125Z,15.21
2022-08-08T00:48:29.120Z,15.22
2022-08-08T00:49:22.377Z,15.11
2022-08-08T00:50:09.241Z,15.19
2022-08-08T00:51:07.785Z,15.14
2022-08-08T00:52:07.767Z,15.14
2022-08-08T00:53:15.722Z,15.02
2022-08-08T00:54:15.757Z,15.09
2022-08-08T00:55:08.829Z,15.06
2022-08-08T00:56:11.252Z,15.04
2022-08-08T00:57:08.660Z,15.04
2022-08-08T00:58:12.402Z,15.02
2022-08-08T00:59:08.618Z,15.04
2022-08-08T01:00:07.600Z,15.09
2022-08-08T01:01:07.639Z,15.07
2022-08-08T01:03:16.171Z,15.14
2022-08-08T01:03:58.585Z,14.97
2022-08-08T01:04:08.945Z,15.02
2022-08-08T01:05:07.491Z,15.06
2022-08-08T01:06:07.926Z,14.99
2022-08-08T01:07:07.451Z,15.04
2022-08-08T01:08:07.453Z,15.04
2022-08-08T01:09:35.138Z,15.06
2022-08-08T01:10:08.385Z,15.06
2022-08-08T01:11:08.029Z,14.94
2022-08-08T01:12:07.344Z,15.09
2022-08-08T01:13:07.349Z,14.96
2022-08-08T01:14:08.544Z,15.02
2022-08-08T01:15:08.283Z,15.02
2022-08-08T01:16:07.261Z,15.02
2022-08-08T01:17:07.238Z,14.94
2022-08-08T01:18:07.245Z,14.96
2022-08-08T01:19:13.642Z,14.96
2022-08-08T01:20:08.175Z,14.91
2022-08-08T01:21:08.178Z,14.91
2022-08-08T01:22:13.559Z,14.81
2022-08-08T01:23:08.134Z,14.91
2022-08-08T01:24:13.818Z,14.89
2022-08-08T01:25:09.065Z,15.02
2022-08-08T01:26:11.399Z,14.97
2022-08-08T01:27:10.598Z,15.00
2022-08-08T01:28:07.027Z,14.96
2022-08-08T01:29:06.977Z,14.99
2022-08-08T01:30:06.957Z,15.02
2022-08-08T01:31:23.694Z,14.86
2022-08-08T01:32:17.153Z,14.82
2022-08-08T01:33:23.452Z,14.77
2022-08-08T01:34:07.871Z,14.73
2022-08-08T01:35:11.422Z,14.91
2022-08-08T01:36:07.833Z,14.85
2022-08-08T01:37:06.810Z,14.85
2022-08-08T01:38:07.818Z,14.91
2022-08-08T01:39:06.818Z,14.82
2022-08-08T01:40:06.780Z,14.81
2022-08-08T01:41:09.884Z,14.84
2022-08-08T01:42:08.232Z,14.82
2022-08-08T01:43:06.710Z,14.77
2022-08-08T01:44:06.662Z,14.70
2022-08-08T01:45:06.646Z,14.70
2022-08-08T01:46:07.619Z,14.77
2022-08-08T01:48:07.144Z,14.79
2022-08-08T01:48:16.918Z,14.84
2022-08-08T01:49:11.018Z,14.65
2022-08-08T01:50:07.853Z,14.72
2022-08-08T01:51:48.645Z,14.70
2022-08-08T01:53:04.226Z,14.70
2022-08-08T01:55:16.028Z,14.70
2022-08-08T01:55:25.755Z,14.65
2022-08-08T01:55:27.014Z,14.63
2022-08-08T01:56:28.839Z,14.66
2022-08-08T01:57:07.397Z,14.69
2022-08-08T01:58:11.886Z,14.63
2022-08-08T01:59:07.819Z,14.60
2022-08-08T02:00:06.799Z,14.51
2022-08-08T02:01:08.968Z,14.59
2022-08-08T02:02:08.294Z,14.55
2022-08-08T02:03:07.168Z,14.54
2022-08-08T02:04:06.273Z,14.54
2022-08-08T02:05:06.226Z,14.55
2022-08-08T02:06:06.205Z,14.54
2022-08-08T02:07:06.191Z,14.53
2022-08-08T02:08:06.884Z,14.53
2022-08-08T02:09:17.664Z,14.51
2022-08-08T02:10:11.658Z,14.48
2022-08-08T02:11:07.102Z,14.44
2022-08-08T02:12:07.081Z,14.44
2022-08-08T02:13:07.085Z,14.48
2022-08-08T02:14:06.041Z,14.32
2022-08-08T02:15:11.281Z,14.41
2022-08-08T02:16:07.003Z,14.35
2022-08-08T02:17:10.448Z,14.30
2022-08-08T02:18:10.501Z,14.32
2022-08-08T02:19:10.094Z,14.44
2022-08-08T02:20:09.500Z,14.30
2022-08-08T02:21:08.105Z,14.28
2022-08-08T02:22:05.873Z,14.35
2022-08-08T02:23:05.879Z,14.29
2022-08-08T02:24:05.833Z,14.23
2022-08-08T02:25:07.294Z,14.26
2022-08-08T02:26:06.788Z,14.29
2022-08-08T02:27:05.771Z,14.20
2022-08-08T02:28:05.774Z,14.40
2022-08-08T02:29:05.726Z,14.28
2022-08-08T02:30:05.702Z,14.29
2022-08-08T02:31:19.625Z,14.32
2022-08-08T02:32:06.665Z,14.36
2022-08-08T02:33:05.670Z,14.25
2022-08-08T02:34:09.109Z,14.32
2022-08-08T02:35:08.527Z,14.30
2022-08-08T02:36:06.586Z,14.43
2022-08-08T02:37:10.047Z,14.43
2022-08-08T02:38:09.070Z,14.35
2022-08-08T02:39:40.612Z,14.36
2022-08-08T02:40:06.590Z,14.37
2022-08-08T02:41:18.022Z,14.36
2022-08-08T02:42:07.961Z,14.43
2022-08-08T02:44:38.507Z,14.36
2022-08-08T02:44:43.051Z,14.41
2022-08-08T02:45:09.787Z,14.40
2022-08-08T02:46:08.105Z,14.33
2022-08-08T02:47:05.369Z,14.37
2022-08-08T02:48:05.382Z,14.29
2022-08-08T02:49:05.334Z,14.36
2022-08-08T02:50:05.314Z,14.23
2022-08-08T02:51:05.318Z,14.23
2022-08-08T02:52:32.401Z,14.28
2022-08-08T02:53:07.282Z,14.26
2022-08-08T02:54:05.228Z,14.23
2022-08-08T02:55:05.208Z,14.25
2022-08-08T02:56:06.186Z,14.22
2022-08-08T02:57:05.207Z,14.15
2022-08-08T02:58:06.177Z,14.20
2022-08-08T02:59:05.979Z,14.15
2022-08-08T03:00:26.622Z,14.15
2022-08-08T03:01:14.768Z,14.22
2022-08-08T03:02:06.116Z,14.22
2022-08-08T03:03:05.054Z,14.15
2022-08-08T03:05:05.089Z,14.17
2022-08-08T03:05:09.325Z,14.23
2022-08-08T03:06:07.275Z,14.12
2022-08-08T03:07:07.175Z,14.28
2022-08-08T03:08:04.986Z,14.22
2022-08-08T03:09:04.929Z,14.22
2022-08-08T03:10:04.908Z,14.23
2022-08-08T03:11:05.104Z,14.18
2022-08-08T03:12:05.983Z,14.18
2022-08-08T03:13:07.350Z,14.22
2022-08-08T03:15:59.703Z,14.10
2022-08-08T03:16:01.148Z,14.11
2022-08-08T03:16:06.519Z,14.05
2022-08-08T03:17:05.763Z,14.12
2022-08-08T03:18:06.862Z,14.03
2022-08-08T03:19:04.727Z,14.07
2022-08-08T03:20:04.701Z,13.96
2022-08-08T03:21:09.719Z,13.95
2022-08-08T03:22:05.666Z,13.99
2022-08-08T03:23:05.670Z,14.05
2022-08-08T03:24:04.625Z,14.10
2022-08-08T03:25:04.633Z,14.05
2022-08-08T03:26:05.580Z,14.04
2022-08-08T03:27:04.561Z,14.05
2022-08-08T03:28:04.544Z,13.99
2022-08-08T03:29:04.544Z,14.00
2022-08-08T03:30:05.502Z,14.03
2022-08-08T03:31:13.583Z,14.00
2022-08-08T03:32:08.411Z,14.03
2022-08-08T03:33:07.794Z,14.04
2022-08-08T03:34:06.424Z,14.10
2022-08-08T03:35:05.406Z,14.04
2022-08-08T03:36:04.386Z,14.11
2022-08-08T03:37:19.891Z,14.18
2022-08-08T03:38:56.269Z,14.12
2022-08-08T03:39:14.791Z,14.07
2022-08-08T03:40:05.373Z,14.08
2022-08-08T03:41:22.927Z,14.05
2022-08-08T03:42:26.542Z,14.11
2022-08-08T03:43:16.582Z,14.11
2022-08-08T03:44:05.227Z,14.14
2022-08-08T03:46:06.368Z,14.10
2022-08-08T03:46:09.177Z,14.20
2022-08-08T03:47:14.037Z,14.18
2022-08-08T03:48:05.175Z,14.05
2022-08-08T03:49:28.022Z,14.17
2022-08-08T03:50:05.112Z,14.10
2022-08-08T03:51:05.087Z,14.11
2022-08-08T03:52:04.203Z,14.17
2022-08-08T03:53:04.072Z,14.10
2022-08-08T03:54:04.027Z,14.03
2022-08-08T03:55:20.149Z,13.96
2022-08-08T03:56:04.985Z,13.96
2022-08-08T03:58:30.317Z,14.11
2022-08-08T03:58:31.631Z,14.05
2022-08-08T03:59:04.922Z,13.99
2022-08-08T04:00:11.350Z,14.04
2022-08-08T04:01:23.372Z,14.05
2022-08-08T04:02:22.882Z,14.05
2022-08-08T04:03:11.088Z,14.22
2022-08-08T04:04:04.876Z,14.22
2022-08-08T04:05:03.808Z,14.32
2022-08-08T04:06:05.789Z,14.41
2022-08-08T04:07:03.765Z,14.47
2022-08-08T04:08:03.774Z,14.59
2022-08-08T04:09:11.067Z,14.54
2022-08-08T04:10:05.712Z,14.72
2022-08-08T04:11:11.014Z,14.97
2022-08-08T04:12:04.665Z,15.14
2022-08-08T04:13:17.359Z,15.49
2022-08-08T04:14:34.024Z,15.77
2022-08-08T04:15:04.638Z,15.91
2022-08-08T04:16:05.719Z,16.21
2022-08-08T04:17:04.241Z,16.43
2022-08-08T04:18:03.543Z,16.74
2022-08-08T04:19:03.524Z,17.02
2022-08-08T04:20:04.648Z,17.27
2022-08-08T04:21:06.345Z,17.51
2022-08-08T04:22:03.460Z,17.72
2022-08-08T04:23:07.138Z,18.00
2022-08-08T04:24:11.560Z,17.94
2022-08-08T04:25:04.424Z,17.94
2022-08-08T04:26:09.077Z,17.97
2022-08-08T04:27:07.476Z,18.37
2022-08-08T04:28:35.782Z,18.74
2022-08-08T04:29:05.313Z,18.95
2022-08-08T04:30:17.908Z,19.18
2022-08-08T04:31:06.069Z,19.49
2022-08-08T04:32:03.250Z,19.82
2022-08-08T04:33:03.227Z,19.76
2022-08-08T04:34:03.234Z,19.86
2022-08-08T04:35:03.183Z,20.22
2022-08-08T04:36:03.164Z,20.51
2022-08-08T04:37:04.212Z,20.44
2022-08-08T04:38:03.124Z,20.69
2022-08-08T04:40:05.869Z,21.09
2022-08-08T04:40:10.728Z,21.45
2022-08-08T04:41:04.165Z,21.80
2022-08-08T04:42:03.051Z,21.99
2022-08-08T04:43:03.036Z,22.15
2022-08-08T04:44:03.036Z,22.33
2022-08-08T04:45:02.992Z,22.54
2022-08-08T04:46:02.972Z,22.32
2022-08-08T04:47:02.953Z,22.07
2022-08-08T04:48:02.938Z,22.30
2022-08-08T04:49:02.944Z,22.60
2022-08-08T04:50:05.033Z,22.30
2022-08-08T04:51:02.884Z,22.51
2022-08-08T04:52:04.143Z,22.93
2022-08-08T04:53:13.705Z,22.93
2022-08-08T04:54:40.170Z,22.84
2022-08-08T04:55:04.341Z,22.57
2022-08-08T04:56:02.787Z,22.15
2022-08-08T04:57:02.777Z,22.55
2022-08-08T04:58:02.752Z,22.93
2022-08-08T04:59:02.764Z,23.40
2022-08-08T05:00:02.715Z,23.47
2022-08-08T05:01:05.920Z,23.91
2022-08-08T05:02:03.734Z,23.71
2022-08-08T05:03:02.663Z,24.02
2022-08-08T05:04:11.480Z,24.36
2022-08-08T05:05:03.628Z,24.39
2022-08-08T05:06:12.556Z,23.69
2022-08-08T05:07:03.595Z,23.69
2022-08-08T05:08:02.752Z,23.91
2022-08-08T05:09:05.946Z,24.05
2022-08-08T05:10:02.546Z,23.98
2022-08-08T05:11:02.526Z,24.11
2022-08-08T05:12:02.513Z,23.77
2022-08-08T05:13:02.606Z,23.74
2022-08-08T05:14:02.508Z,24.16
2022-08-08T05:15:03.044Z,23.34
2022-08-08T05:16:52.889Z,23.86
2022-08-08T05:17:09.026Z,24.03
2022-08-08T05:18:03.406Z,24.02
2022-08-08T05:19:02.411Z,24.02
2022-08-08T05:20:12.537Z,24.33
2022-08-08T05:21:05.796Z,24.86
2022-08-08T05:22:02.334Z,25.41
2022-08-08T05:23:02.313Z,25.50
2022-08-08T05:24:02.326Z,25.44
2022-08-08T05:25:03.285Z,25.80
2022-08-08T05:26:02.268Z,25.88
2022-08-08T05:27:02.284Z,25.14
2022-08-08T05:28:02.240Z,25.40
2022-08-08T05:29:06.258Z,25.44
2022-08-08T05:30:02.195Z,25.66
2022-08-08T05:31:08.718Z,26.06
2022-08-08T05:32:06.195Z,26.40
2022-08-08T05:33:03.266Z,26.75
2022-08-08T05:34:02.153Z,27.07
2022-08-08T05:35:05.282Z,27.03
2022-08-08T05:36:02.088Z,26.31
2022-08-08T05:37:02.073Z,26.44
2022-08-08T05:38:03.060Z,26.90
2022-08-08T05:39:02.096Z,27.36
2022-08-08T05:40:02.026Z,27.67
2022-08-08T05:41:02.005Z,28.15
2022-08-08T05:42:01.995Z,28.02
2022-08-08T05:43:01.975Z,27.95
2022-08-08T05:44:03.635Z,28.14
2022-08-08T05:45:10.459Z,28.14
2022-08-08T05:46:04.133Z,28.04
2022-08-08T05:47:04.872Z,27.93
2022-08-08T05:48:08.934Z,27.58
2022-08-08T05:49:05.401Z,26.77
2022-08-08T05:50:02.860Z,26.38
2022-08-08T05:51:15.003Z,26.77
2022-08-08T05:52:02.821Z,27.03
2022-08-08T05:53:54.641Z,27.15
2022-08-08T05:54:42.566Z,27.47
2022-08-08T05:55:07.525Z,27.59
2022-08-08T05:56:07.802Z,27.64
2022-08-08T05:57:04.743Z,26.92
2022-08-08T05:58:04.842Z,26.05
2022-08-08T05:59:03.795Z,25.28
2022-08-08T06:00:22.558Z,25.18
2022-08-08T06:01:04.987Z,25.47
2022-08-08T06:02:01.658Z,24.88
2022-08-08T06:03:01.636Z,24.77
2022-08-08T06:04:04.903Z,25.29
2022-08-08T06:05:06.797Z,25.69
2022-08-08T06:06:05.081Z,26.07
2022-08-08T06:07:01.825Z,26.45
2022-08-08T06:08:02.312Z,24.88
2022-08-08T06:09:58.971Z,25.40
2022-08-08T06:10:02.639Z,24.93
2022-08-08T06:11:02.511Z,25.59
2022-08-08T06:12:01.494Z,26.70
2022-08-08T06:13:01.605Z,26.62
2022-08-08T06:14:01.492Z,26.75
2022-08-08T06:15:03.185Z,26.47
2022-08-08T06:16:01.430Z,26.34
2022-08-08T06:17:01.418Z,26.45
2022-08-08T06:18:20.249Z,26.06
2022-08-08T06:19:04.078Z,26.37
2022-08-08T06:20:01.366Z,26.96
2022-08-08T06:21:03.756Z,27.49
2022-08-08T06:22:32.255Z,27.27
2022-08-08T06:23:02.457Z,26.96
2022-08-08T06:24:03.464Z,27.17
2022-08-08T06:25:01.281Z,27.45
2022-08-08T06:26:44.765Z,28.01
2022-08-08T06:27:02.470Z,27.64
2022-08-08T06:28:01.233Z,27.73
2022-08-08T06:29:02.238Z,27.86
2022-08-08T06:30:02.226Z,27.15
2022-08-08T06:31:02.186Z,27.26
2022-08-08T06:32:09.772Z,27.45
2022-08-08T06:33:02.353Z,27.93
2022-08-08T06:34:26.281Z,28.14
2022-08-08T06:35:57.144Z,27.49
2022-08-08T06:36:08.418Z,27.03
2022-08-08T06:37:02.089Z,26.88
2022-08-08T06:38:02.085Z,26.73
2022-08-08T06:39:01.139Z,27.00
2022-08-08T06:40:02.097Z,27.22
2022-08-08T06:41:01.034Z,27.14
2022-08-08T06:42:02.616Z,26.96
2022-08-08T06:43:00.995Z,26.89
2022-08-08T06:44:01.008Z,27.30
2022-08-08T06:45:00.964Z,27.33
2022-08-08T06:46:00.948Z,27.47
2022-08-08T06:47:01.715Z,27.35
2022-08-08T06:48:04.192Z,27.21
2022-08-08T06:49:00.941Z,27.48
2022-08-08T06:50:00.890Z,27.60
2022-08-08T06:51:04.311Z,27.08
2022-08-08T06:52:02.858Z,27.03
2022-08-08T06:53:00.849Z,26.44
2022-08-08T06:54:01.854Z,27.25
2022-08-08T06:55:00.811Z,27.17
2022-08-08T06:56:02.938Z,27.55
2022-08-08T06:57:00.785Z,28.22
2022-08-08T06:58:04.113Z,28.23
2022-08-08T06:59:01.775Z,27.52
2022-08-08T07:00:11.404Z,27.39
2022-08-08T07:01:01.718Z,28.04
2022-08-08T07:02:26.531Z,28.51
2022-08-08T07:03:01.702Z,28.57
2022-08-08T07:04:35.460Z,27.93
2022-08-08T07:05:01.751Z,28.17
2022-08-08T07:06:01.634Z,28.30
2022-08-08T07:07:00.623Z,27.58
2022-08-08T07:08:01.642Z,27.85
2022-08-08T07:09:01.159Z,28.78
2022-08-08T07:10:00.976Z,29.44
2022-08-08T07:11:01.562Z,29.61
2022-08-08T07:12:00.545Z,29.13
2022-08-08T07:13:00.532Z,29.35
2022-08-08T07:14:01.717Z,29.75
2022-08-08T07:15:00.879Z,30.03
2022-08-08T07:16:07.093Z,29.81
2022-08-08T07:17:01.467Z,29.59
2022-08-08T07:18:01.610Z,28.85
2022-08-08T07:19:01.437Z,29.76
2022-08-08T07:20:00.456Z,30.47
2022-08-08T07:21:01.902Z,30.77
2022-08-08T07:22:05.150Z,30.94
2022-08-08T07:23:02.395Z,31.34
2022-08-08T07:24:03.361Z,31.44
2022-08-08T07:25:00.338Z,31.39
2022-08-08T07:26:00.323Z,31.24
2022-08-08T07:27:00.313Z,30.92
2022-08-08T07:28:02.589Z,29.50
2022-08-08T07:29:05.802Z,29.26
2022-08-08T07:30:06.950Z,29.50
2022-08-08T07:31:02.257Z,29.68
2022-08-08T07:32:00.231Z,29.41
2022-08-08T07:33:01.108Z,28.52
2022-08-08T07:34:00.232Z,28.27
2022-08-08T07:35:02.758Z,27.65
2022-08-08T07:36:00.172Z,27.45
2022-08-08T07:37:00.157Z,28.04
2022-08-08T07:38:10.221Z,28.38
2022-08-08T07:39:01.656Z,29.32
2022-08-08T07:40:01.849Z,28.79
2022-08-08T07:41:04.185Z,27.80
2022-08-08T07:42:04.233Z,27.25
2022-08-08T07:43:01.063Z,27.10
2022-08-08T07:44:00.102Z,27.51
2022-08-08T07:45:00.034Z,28.52
2022-08-08T07:46:17.918Z,28.70
2022-08-08T07:47:01.006Z,28.35
2022-08-08T07:47:59.992Z,28.66
2022-08-08T07:49:00.004Z,28.86
2022-08-08T07:49:59.961Z,28.56
2022-08-08T07:50:59.948Z,28.96
2022-08-08T07:51:59.931Z,28.66
2022-08-08T07:52:59.911Z,29.41
2022-08-08T07:54:02.864Z,30.08
2022-08-08T07:54:59.881Z,30.32
2022-08-08T07:55:59.869Z,30.47
2022-08-08T07:56:59.856Z,29.69
2022-08-08T07:57:59.837Z,29.41
2022-08-08T07:58:59.850Z,29.45
2022-08-08T07:59:59.810Z,29.02
2022-08-08T08:01:00.019Z,29.29
2022-08-08T08:02:35.490Z,30.19
2022-08-08T08:03:00.756Z,30.68
2022-08-08T08:03:59.829Z,29.97
2022-08-08T08:04:59.731Z,29.34
2022-08-08T08:05:59.714Z,28.48
2022-08-08T08:06:59.693Z,28.93
2022-08-08T08:07:59.684Z,29.44
2022-08-08T08:08:59.694Z,29.34
2022-08-08T08:09:59.651Z,29.07
2022-08-08T08:10:59.635Z,29.49
2022-08-08T08:11:59.625Z,30.44
2022-08-08T08:12:59.604Z,31.17
2022-08-08T08:14:08.110Z,31.65
2022-08-08T08:15:04.210Z,31.36
2022-08-08T08:15:59.558Z,31.62
2022-08-08T08:16:59.542Z,31.78
2022-08-08T08:17:59.530Z,31.27
2022-08-08T08:18:59.537Z,30.99
2022-08-08T08:19:59.501Z,31.03
2022-08-08T08:20:59.485Z,30.75
2022-08-08T08:22:00.766Z,30.47
2022-08-08T08:22:59.452Z,29.75
2022-08-08T08:24:02.885Z,29.87
2022-08-08T08:24:59.417Z,29.98
2022-08-08T08:26:00.402Z,29.98
2022-08-08T08:26:59.419Z,30.02
2022-08-08T08:27:59.368Z,29.87
2022-08-08T08:28:59.381Z,30.10
2022-08-08T08:29:59.336Z,30.44
2022-08-08T08:30:59.325Z,30.81
2022-08-08T08:32:05.728Z,30.78
2022-08-08T08:33:00.293Z,31.12
2022-08-08T08:33:59.306Z,31.00
2022-08-08T08:34:59.261Z,30.57
2022-08-08T08:36:19.150Z,30.91
2022-08-08T08:37:00.236Z,30.96
2022-08-08T08:38:15.702Z,31.00
2022-08-08T08:39:01.240Z,31.10
2022-08-08T08:40:02.859Z,31.51
2022-08-08T08:40:59.168Z,31.02
2022-08-08T08:41:59.152Z,30.18
2022-08-08T08:42:59.136Z,30.08
2022-08-08T08:44:13.488Z,28.79
2022-08-08T08:45:00.109Z,28.82
2022-08-08T08:46:03.433Z,29.27
2022-08-08T08:47:00.084Z,29.78
2022-08-08T08:48:01.033Z,30.37
2022-08-08T08:48:59.073Z,30.39
2022-08-08T08:49:59.028Z,29.82
2022-08-08T08:50:59.011Z,30.27
2022-08-08T08:51:58.994Z,29.35
2022-08-08T08:53:00.123Z,29.41
2022-08-08T08:54:00.826Z,29.87
2022-08-08T08:54:58.947Z,30.05
2022-08-08T08:56:01.327Z,29.95
2022-08-08T08:56:58.912Z,29.54
2022-08-08T08:57:58.904Z,29.42
2022-08-08T08:58:58.911Z,28.69
2022-08-08T09:00:04.640Z,27.68
2022-08-08T09:01:08.389Z,28.07
2022-08-08T09:02:00.891Z,28.60
2022-08-08T09:02:58.819Z,28.44
2022-08-08T09:03:58.831Z,28.51
2022-08-08T09:04:58.781Z,28.78
2022-08-08T09:05:58.766Z,29.07
2022-08-08T09:06:58.750Z,28.81
2022-08-08T09:08:12.730Z,28.48
2022-08-08T09:08:59.740Z,28.48
2022-08-08T09:09:58.700Z,28.01
2022-08-08T09:10:58.678Z,27.83
2022-08-08T09:12:01.457Z,28.10
2022-08-08T09:12:58.649Z,27.86
2022-08-08T09:13:58.654Z,27.74
2022-08-08T09:14:58.612Z,27.64
2022-08-08T09:16:03.737Z,27.65
2022-08-08T09:16:59.572Z,28.15
2022-08-08T09:17:58.805Z,28.45
2022-08-08T09:18:58.566Z,29.01
2022-08-08T09:21:56.138Z,28.94
2022-08-08T09:21:59.247Z,28.94
2022-08-08T09:22:06.257Z,29.27
2022-08-08T09:23:00.481Z,29.82
2022-08-08T09:23:58.482Z,30.48
2022-08-08T09:24:58.738Z,30.73
2022-08-08T09:26:02.255Z,30.39
2022-08-08T09:26:58.405Z,28.66
2022-08-08T09:27:58.671Z,28.02
2022-08-08T09:28:59.400Z,27.74
2022-08-08T09:29:58.356Z,27.75
2022-08-08T09:30:58.339Z,27.85
2022-08-08T09:31:58.328Z,28.11
2022-08-08T09:33:55.475Z,28.00
2022-08-08T09:34:31.012Z,28.00
2022-08-08T09:34:59.272Z,27.32
2022-08-08T09:35:58.256Z,27.70
2022-08-08T09:37:57.082Z,27.20
2022-08-08T09:38:02.102Z,26.47
2022-08-08T09:38:59.233Z,26.52
2022-08-08T09:39:58.204Z,26.44
2022-08-08T09:40:58.168Z,26.63
2022-08-08T09:42:21.332Z,26.74
2022-08-08T09:42:59.133Z,26.77
2022-08-08T09:44:04.977Z,26.65
2022-08-08T09:45:03.612Z,26.81
2022-08-08T09:46:02.981Z,27.27
2022-08-08T09:47:05.161Z,27.58
2022-08-08T09:48:04.332Z,27.54
2022-08-08T09:49:18.661Z,27.18
2022-08-08T09:50:01.469Z,26.68
2022-08-08T09:51:00.000Z,26.93
2022-08-08T09:52:06.861Z,26.77
2022-08-08T09:53:01.341Z,26.75
2022-08-08T09:54:09.304Z,26.80
2022-08-08T09:54:59.957Z,26.73
2022-08-08T09:56:05.776Z,26.81
2022-08-08T09:56:58.900Z,26.92
2022-08-08T09:57:57.903Z,27.27
2022-08-08T09:58:58.008Z,27.20
2022-08-08T10:00:59.826Z,26.71
2022-08-08T10:02:00.202Z,26.96
2022-08-08T10:02:58.792Z,26.74
2022-08-08T10:03:57.771Z,26.33
2022-08-08T10:04:57.806Z,26.41
2022-08-08T10:05:57.797Z,26.53
2022-08-08T10:06:57.719Z,26.41
2022-08-08T10:08:00.562Z,26.52
2022-08-08T10:08:57.682Z,26.93
2022-08-08T10:10:00.066Z,27.44
2022-08-08T10:10:57.734Z,27.78
2022-08-08T10:12:28.273Z,28.14
2022-08-08T10:13:00.510Z,28.20
2022-08-08T10:13:58.593Z,28.04
2022-08-08T10:14:57.602Z,27.65
2022-08-08T10:16:00.975Z,27.18
2022-08-08T10:16:58.406Z,27.26
2022-08-08T10:18:11.795Z,27.11
2022-08-08T10:18:59.505Z,27.14
2022-08-08T10:19:58.601Z,27.26
2022-08-08T10:21:00.583Z,27.29
2022-08-08T10:21:57.458Z,27.37
2022-08-08T10:22:57.436Z,27.45
2022-08-08T10:23:59.221Z,27.58
2022-08-08T10:24:57.426Z,27.40
2022-08-08T10:25:57.703Z,27.49
2022-08-08T10:26:59.782Z,27.10
2022-08-08T10:27:57.846Z,27.15
2022-08-08T10:28:57.332Z,27.29
2022-08-08T10:29:59.536Z,27.49
2022-08-08T10:31:01.029Z,27.49
2022-08-08T10:31:57.270Z,27.59
2022-08-08T10:32:57.262Z,27.64
2022-08-08T10:34:19.372Z,27.17
2022-08-08T10:35:01.483Z,26.68
2022-08-08T10:36:12.517Z,26.15
2022-08-08T10:36:59.735Z,25.96
2022-08-08T10:37:57.173Z,25.75
2022-08-08T10:38:57.151Z,25.62
2022-08-08T10:39:57.175Z,25.99
2022-08-08T10:40:57.117Z,26.47
2022-08-08T10:42:15.045Z,26.83
2022-08-08T10:42:58.081Z,26.88
2022-08-08T10:43:57.060Z,27.10
2022-08-08T10:44:57.070Z,27.40
2022-08-08T10:45:58.776Z,27.49
2022-08-08T10:46:58.010Z,27.83
2022-08-08T10:47:56.988Z,27.58
2022-08-08T10:48:59.136Z,27.00
2022-08-08T10:50:01.580Z,26.47
2022-08-08T10:50:56.935Z,26.47
2022-08-08T10:51:56.919Z,26.38
2022-08-08T10:52:56.902Z,26.40
2022-08-08T10:53:59.541Z,25.95
2022-08-08T10:54:56.894Z,26.23
2022-08-08T10:55:56.845Z,26.53
2022-08-08T10:56:56.827Z,26.63
2022-08-08T10:57:56.808Z,27.07
2022-08-08T10:58:56.787Z,27.45
2022-08-08T10:59:56.797Z,27.82
2022-08-08T11:01:05.029Z,28.29
2022-08-08T11:01:57.797Z,28.14
2022-08-08T11:02:56.716Z,27.42
2022-08-08T11:04:01.893Z,26.99
2022-08-08T11:04:58.710Z,26.88
2022-08-08T11:06:00.687Z,26.74
2022-08-08T11:06:56.647Z,26.75
2022-08-08T11:08:37.793Z,26.28
2022-08-08T11:08:57.615Z,25.59
2022-08-08T11:09:56.621Z,25.43
2022-08-08T11:10:56.578Z,25.54
2022-08-08T11:12:04.625Z,25.87
2022-08-08T11:13:18.653Z,26.29
2022-08-08T11:14:00.083Z,26.23
2022-08-08T11:14:56.532Z,26.36
2022-08-08T11:16:00.687Z,26.56
2022-08-08T11:16:57.466Z,26.80
2022-08-08T11:17:59.791Z,27.11
2022-08-08T11:18:57.435Z,27.47
2022-08-08T11:19:56.445Z,27.68
2022-08-08T11:20:57.513Z,27.48
2022-08-08T11:21:56.511Z,27.35
2022-08-08T11:22:57.367Z,27.08
2022-08-08T11:24:01.579Z,26.73
2022-08-08T11:24:57.358Z,26.55
2022-08-08T11:25:57.150Z,26.34
2022-08-08T11:26:57.383Z,26.19
2022-08-08T11:27:56.274Z,26.38
2022-08-08T11:28:56.261Z,26.53
2022-08-08T11:30:20.585Z,26.70
2022-08-08T11:30:57.224Z,26.71
2022-08-08T11:31:56.203Z,26.97
2022-08-08T11:32:56.186Z,27.08
2022-08-08T11:34:01.906Z,27.05
2022-08-08T11:35:24.983Z,27.07
2022-08-08T11:35:58.146Z,27.26
2022-08-08T11:36:58.722Z,27.21
2022-08-08T11:38:36.202Z,27.08
2022-08-08T11:38:57.124Z,26.97
2022-08-08T11:39:57.153Z,26.99
2022-08-08T11:40:56.053Z,27.20
2022-08-08T11:41:56.034Z,27.54
2022-08-08T11:42:56.017Z,27.74
2022-08-08T11:43:58.121Z,27.98
2022-08-08T11:44:56.008Z,27.93
2022-08-08T11:46:13.346Z,28.01
2022-08-08T11:46:57.944Z,28.26
2022-08-08T11:48:02.711Z,28.37
2022-08-08T11:48:56.915Z,28.54
2022-08-08T11:49:55.916Z,28.02
2022-08-08T11:50:55.875Z,27.49
2022-08-08T11:51:55.854Z,27.14
2022-08-08T11:52:55.841Z,27.22
2022-08-08T11:54:01.193Z,27.35
2022-08-08T11:54:56.829Z,27.63
2022-08-08T11:55:55.789Z,27.54
2022-08-08T11:56:56.003Z,27.83
2022-08-08T11:57:59.991Z,28.04
2022-08-08T11:58:57.730Z,28.14
2022-08-08T12:00:00.862Z,28.23
2022-08-08T12:00:56.700Z,28.26
2022-08-08T12:02:15.009Z,28.27
2022-08-08T12:02:57.765Z,28.22
2022-08-08T12:03:59.496Z,27.49
2022-08-08T12:04:56.653Z,27.39
2022-08-08T12:05:55.612Z,27.58
2022-08-08T12:06:55.591Z,27.82
2022-08-08T12:07:55.802Z,28.01
2022-08-08T12:08:55.553Z,28.17
2022-08-08T12:09:59.397Z,27.85
2022-08-08T12:10:56.531Z,27.83
2022-08-08T12:11:55.508Z,27.86
2022-08-08T12:12:56.035Z,27.96
2022-08-08T12:14:03.831Z,28.10
2022-08-08T12:14:56.739Z,28.22
2022-08-08T12:15:55.606Z,28.15
2022-08-08T12:16:55.408Z,28.10
2022-08-08T12:17:55.388Z,27.90
2022-08-08T12:18:55.373Z,27.63
2022-08-08T12:19:55.377Z,27.67
2022-08-08T12:20:55.364Z,27.87
2022-08-08T12:21:59.467Z,27.96
2022-08-08T12:22:57.036Z,28.01
2022-08-08T12:24:00.200Z,27.82
2022-08-08T12:24:56.691Z,27.58
2022-08-08T12:25:56.908Z,27.11
2022-08-08T12:26:56.972Z,26.83
2022-08-08T12:27:55.215Z,27.00
2022-08-08T12:28:55.196Z,27.02
2022-08-08T12:29:55.211Z,26.92
2022-08-08T12:30:55.160Z,26.97
2022-08-08T12:31:55.142Z,27.11
2022-08-08T12:32:55.126Z,27.20
2022-08-08T12:34:02.746Z,27.27
2022-08-08T12:35:01.288Z,27.29
2022-08-08T12:35:56.067Z,26.99
2022-08-08T12:36:55.056Z,26.70
2022-08-08T12:38:02.262Z,26.66
2022-08-08T12:38:56.015Z,26.74
2022-08-08T12:40:01.189Z,26.89
2022-08-08T12:40:59.236Z,27.18
2022-08-08T12:42:01.610Z,27.36
2022-08-08T12:42:55.949Z,27.49
2022-08-08T12:44:00.538Z,27.77
2022-08-08T12:44:55.938Z,28.00
2022-08-08T12:46:00.377Z,28.02
2022-08-08T12:47:01.001Z,28.04
2022-08-08T12:48:04.563Z,27.93
2022-08-08T12:49:21.926Z,27.70
2022-08-08T12:49:56.856Z,27.64
2022-08-08T12:50:57.577Z,27.48
2022-08-08T12:52:00.437Z,27.54
2022-08-08T12:52:55.909Z,27.07